Time;durP1;ratioP1;P1;durP2;ratioP2;P2;SDS_P1;SDS_P2;PMS_P1;PMS_P2;Temp;Humidity;BMP_temperature;BMP_pressure;BME280_temperature;BME280_humidity;BME280_pressure;Samples;Min_cycle;Max_cycle;Signal;HPM_P1;HPM_P2
2024/03/31 04:00:57;;;;;;;18.43;6.57;;;10.70;97.30;;;;;;5844257;23;20491;-90
2024/03/31 04:03:23;;;;;;;12.93;5.50;;;10.70;97.30;;;;;;4982839;28;20434;-89
2024/03/31 04:05:58;;;;;;;13.07;5.60;;;10.70;97.30;;;;;;4981151;28;20596;-87
2024/03/31 04:08:23;;;;;;;4.90;4.60;;;10.70;97.30;;;;;;4967841;28;20236;-86
2024/03/31 04:10:49;;;;;;;9.40;5.10;;;10.70;97.30;;;;;;4972827;28;20464;-90
2024/03/31 04:13:15;;;;;;;22.87;7.33;;;10.70;97.30;;;;;;4958403;28;20166;-87
2024/03/31 04:15:41;;;;;;;5.60;4.43;;;10.70;97.30;;;;;;4966260;28;20179;-88
2024/03/31 04:18:07;;;;;;;17.40;5.97;;;10.80;97.30;;;;;;4957677;28;20181;-89
2024/03/31 04:20:38;;;;;;;12.10;6.40;;;10.70;97.30;;;;;;4974208;28;20437;-88
2024/03/31 04:23:04;;;;;;;10.70;4.23;;;10.80;97.30;;;;;;4966519;28;20209;-89
2024/03/31 04:25:29;;;;;;;16.63;4.50;;;10.80;97.30;;;;;;4959682;28;20440;-87
2024/03/31 04:27:57;;;;;;;9.20;3.83;;;10.80;97.30;;;;;;4955925;28;20806;-90
2024/03/31 04:30:22;;;;;;;5.20;3.90;;;10.80;97.30;;;;;;4967492;28;20198;-89
2024/03/31 04:32:48;;;;;;;31.87;5.77;;;10.80;97.30;;;;;;4962178;28;20485;-89
2024/03/31 04:35:14;;;;;;;4.73;4.20;;;10.80;97.30;;;;;;4968647;28;20411;-88
2024/03/31 04:37:39;;;;;;;14.00;4.57;;;10.80;97.30;;;;;;4955481;28;20190;-87
2024/03/31 04:40:05;;;;;;;16.57;5.87;;;10.80;97.30;;;;;;4961970;28;20179;-89
2024/03/31 04:42:31;;;;;;;9.20;3.37;;;10.80;97.30;;;;;;4967262;28;20252;-90
2024/03/31 04:44:56;;;;;;;10.97;4.30;;;10.80;97.30;;;;;;4971101;28;20417;-87
2024/03/31 04:47:25;;;;;;;21.77;5.43;;;10.80;97.30;;;;;;4961546;28;20558;-91
2024/03/31 04:49:50;;;;;;;19.00;4.30;;;10.80;97.30;;;;;;4978461;28;20185;-86
2024/03/31 04:52:16;;;;;;;3.43;3.30;;;10.80;97.30;;;;;;4961907;28;20465;-89
2024/03/31 04:54:41;;;;;;;9.17;5.97;;;10.80;97.30;;;;;;4976838;28;20345;-91
2024/03/31 04:57:07;;;;;;;9.63;5.93;;;10.70;97.30;;;;;;4961610;28;20177;-88
2024/03/31 04:59:34;;;;;;;4.10;2.70;;;10.70;97.30;;;;;;4963166;28;20304;-89
2024/03/31 05:01:59;;;;;;;28.00;5.87;;;10.60;97.30;;;;;;4966061;28;20451;-91
2024/03/31 05:04:25;;;;;;;10.63;6.60;;;10.50;97.30;;;;;;4973646;28;20455;-87
2024/03/31 05:06:50;;;;;;;10.10;4.90;;;10.50;97.30;;;;;;4973141;28;20297;-87
2024/03/31 05:09:16;;;;;;;11.93;6.10;;;10.50;97.30;;;;;;4965349;28;20815;-84
2024/03/31 05:11:41;;;;;;;7.67;3.43;;;10.50;97.30;;;;;;4958103;28;20518;-87
2024/03/31 05:14:07;;;;;;;13.70;4.20;;;10.50;97.30;;;;;;4964636;28;20182;-91
2024/03/31 05:16:32;;;;;;;9.73;4.60;;;10.50;97.30;;;;;;4972726;28;20182;-89
2024/03/31 05:18:58;;;;;;;7.73;4.07;;;10.50;97.30;;;;;;4962534;28;20178;-86
2024/03/31 05:21:28;;;;;;;13.97;6.30;;;10.50;97.30;;;;;;4952792;28;20297;-88
2024/03/31 05:23:53;;;;;;;9.43;5.60;;;10.60;97.30;;;;;;4958083;28;20187;-90
2024/03/31 05:26:19;;;;;;;10.60;5.77;;;10.60;97.30;;;;;;4963973;28;20463;-88
2024/03/31 05:28:44;;;;;;;14.57;5.00;;;10.60;97.30;;;;;;4954960;28;20257;-91
2024/03/31 05:31:10;;;;;;;11.70;6.37;;;10.70;97.30;;;;;;4965795;23;20229;-68
2024/03/31 05:33:35;;;;;;;5.67;4.00;;;10.70;97.30;;;;;;4988951;28;20669;-68
2024/03/31 05:36:01;;;;;;;16.83;5.33;;;10.70;97.30;;;;;;4955342;28;20190;-68
2024/03/31 05:38:27;;;;;;;23.70;3.77;;;10.80;97.30;;;;;;4989190;28;20217;-68
2024/03/31 05:40:52;;;;;;;6.73;4.87;;;10.80;97.30;;;;;;4970164;28;20574;-68
2024/03/31 05:43:18;;;;;;;7.33;5.30;;;10.70;97.30;;;;;;4969652;28;20453;-68
2024/03/31 05:45:43;;;;;;;7.17;4.27;;;10.70;97.30;;;;;;4976025;28;20693;-68
2024/03/31 05:48:11;;;;;;;5.97;5.60;;;10.70;97.30;;;;;;4957742;28;20182;-68
2024/03/31 05:50:37;;;;;;;6.57;5.10;;;10.70;97.30;;;;;;4959690;28;20218;-68
2024/03/31 05:53:03;;;;;;;3.73;3.50;;;10.70;97.30;;;;;;4969155;28;20429;-68
2024/03/31 05:55:29;;;;;;;20.47;5.70;;;10.80;97.30;;;;;;4969348;28;20453;-68
2024/03/31 05:57:55;;;;;;;16.30;7.50;;;10.80;97.30;;;;;;4977497;28;20422;-68
2024/03/31 06:00:22;;;;;;;29.97;4.70;;;10.90;97.30;;;;;;4963779;28;20216;-68
2024/03/31 06:02:49;;;;;;;4.37;3.83;;;10.90;97.30;;;;;;4971067;28;20804;-68
2024/03/31 06:05:14;;;;;;;8.87;6.57;;;10.90;97.30;;;;;;4955011;28;20421;-68
2024/03/31 06:07:40;;;;;;;4.83;4.20;;;10.90;97.30;;;;;;4988520;28;20967;-68
2024/03/31 06:10:05;;;;;;;11.83;5.20;;;11.00;97.30;;;;;;4952540;28;20214;-68
2024/03/31 06:12:31;;;;;;;20.00;5.93;;;11.00;97.30;;;;;;4965117;28;20202;-68
2024/03/31 06:14:57;;;;;;;19.77;4.33;;;11.00;97.30;;;;;;4954332;28;20183;-68
2024/03/31 06:17:22;;;;;;;3.53;3.27;;;11.10;97.30;;;;;;4984278;28;20665;-68
2024/03/31 06:19:48;;;;;;;26.60;6.63;;;11.10;97.30;;;;;;4960180;28;20192;-68
2024/03/31 06:22:14;;;;;;;20.93;3.53;;;11.10;97.30;;;;;;4954423;28;20720;-68
2024/03/31 06:24:40;;;;;;;3.63;3.23;;;11.10;97.30;;;;;;4959009;28;20214;-68
2024/03/31 06:27:05;;;;;;;19.00;6.47;;;11.10;97.30;;;;;;4971065;28;21009;-68
2024/03/31 06:29:31;;;;;;;2.47;2.27;;;11.20;97.30;;;;;;4967248;28;20426;-68
2024/03/31 06:31:56;;;;;;;16.77;3.60;;;11.20;97.30;;;;;;4953624;28;20233;-68
2024/03/31 06:34:22;;;;;;;8.23;3.70;;;11.30;97.30;;;;;;4975851;28;20181;-68
2024/03/31 06:36:47;;;;;;;18.60;5.30;;;11.30;97.30;;;;;;4984923;28;20181;-68
2024/03/31 06:39:13;;;;;;;22.03;7.73;;;11.30;97.30;;;;;;4966265;28;20668;-68
2024/03/31 06:41:39;;;;;;;38.80;5.10;;;11.40;97.30;;;;;;4955479;28;20206;-68
2024/03/31 06:44:05;;;;;;;6.93;5.60;;;11.50;97.30;;;;;;4980142;28;20268;-68
2024/03/31 06:46:30;;;;;;;17.10;7.30;;;11.50;97.30;;;;;;4968315;28;20674;-68
2024/03/31 06:48:56;;;;;;;8.60;4.70;;;11.50;97.30;;;;;;4965759;28;20198;-68
2024/03/31 06:51:21;;;;;;;8.00;4.37;;;11.60;97.30;;;;;;4970033;28;20213;-69
2024/03/31 06:53:50;;;;;;;15.40;4.90;;;11.60;97.30;;;;;;4958883;28;20642;-69
2024/03/31 06:56:16;;;;;;;8.60;4.27;;;11.60;97.30;;;;;;4962005;28;20254;-68
2024/03/31 06:58:41;;;;;;;5.23;3.93;;;11.60;97.30;;;;;;4962616;28;20432;-68
2024/03/31 07:01:07;;;;;;;8.50;4.80;;;11.60;97.30;;;;;;4975085;28;20494;-68
2024/03/31 07:03:32;;;;;;;26.67;5.07;;;11.60;97.30;;;;;;4984734;28;20241;-69
2024/03/31 07:05:58;;;;;;;8.30;5.30;;;11.60;97.30;;;;;;4951841;28;20663;-68
2024/03/31 07:08:23;;;;;;;5.17;4.97;;;11.60;97.30;;;;;;4955348;28;20182;-68
2024/03/31 07:10:49;;;;;;;6.73;5.60;;;11.70;97.30;;;;;;4957848;28;20267;-68
2024/03/31 07:13:14;;;;;;;16.63;4.53;;;11.70;97.30;;;;;;4975928;28;20233;-68
2024/03/31 07:15:40;;;;;;;4.50;4.20;;;11.80;97.30;;;;;;4972103;28;20257;-69
2024/03/31 07:18:10;;;;;;;17.03;6.40;;;11.80;97.30;;;;;;4967715;28;20182;-68
2024/03/31 07:20:36;;;;;;;8.63;4.70;;;11.90;97.30;;;;;;4973795;28;20264;-68
2024/03/31 07:23:03;;;;;;;17.57;4.70;;;12.00;97.30;;;;;;4990197;28;20508;-67
2024/03/31 07:25:29;;;;;;;34.33;7.90;;;12.00;97.30;;;;;;4976143;28;20471;-68
2024/03/31 07:27:55;;;;;;;4.50;4.13;;;12.10;97.30;;;;;;4974964;28;20479;-68
2024/03/31 07:30:20;;;;;;;8.13;5.93;;;12.20;97.30;;;;;;4954028;28;20430;-66
2024/03/31 07:32:46;;;;;;;8.83;3.50;;;12.30;97.30;;;;;;4978441;28;20245;-67
2024/03/31 07:35:11;;;;;;;6.80;3.90;;;12.30;97.30;;;;;;4963394;28;20178;-67
2024/03/31 07:37:37;;;;;;;19.43;6.83;;;12.40;97.30;;;;;;4971909;28;20581;-68
2024/03/31 07:40:03;;;;;;;14.23;5.53;;;12.50;97.30;;;;;;4980193;28;20183;-67
2024/03/31 07:42:28;;;;;;;13.20;8.20;;;12.50;97.30;;;;;;4983360;28;20198;-68
2024/03/31 07:44:54;;;;;;;11.93;4.97;;;12.60;97.30;;;;;;4983348;28;20504;-68
2024/03/31 07:47:19;;;;;;;17.53;7.23;;;12.60;97.30;;;;;;4974618;28;20521;-69
2024/03/31 07:49:45;;;;;;;11.43;3.80;;;12.60;97.30;;;;;;4958741;28;20725;-69
2024/03/31 07:52:10;;;;;;;9.27;3.73;;;12.70;97.30;;;;;;4970921;28;20224;-68
2024/03/31 07:54:36;;;;;;;14.13;6.57;;;12.70;97.30;;;;;;4976149;28;20178;-66
2024/03/31 07:57:01;;;;;;;11.93;8.10;;;12.80;97.30;;;;;;4954460;28;20210;-66
2024/03/31 07:59:27;;;;;;;6.53;5.37;;;12.90;97.30;;;;;;4975033;28;20186;-67
2024/03/31 08:01:54;;;;;;;9.53;5.27;;;13.00;97.30;;;;;;4971195;28;20203;-67
2024/03/31 08:04:20;;;;;;;14.53;7.03;;;13.10;97.30;;;;;;4958993;28;20262;-67
2024/03/31 08:06:45;;;;;;;6.40;4.80;;;13.10;97.30;;;;;;4973627;28;20521;-65
2024/03/31 08:09:11;;;;;;;11.70;3.67;;;13.20;97.30;;;;;;4970065;28;20179;-64
2024/03/31 08:11:36;;;;;;;4.93;4.53;;;13.30;97.30;;;;;;4955546;28;20206;-65
2024/03/31 08:14:02;;;;;;;10.73;3.60;;;13.40;97.30;;;;;;4964181;28;20307;-65
2024/03/31 08:16:27;;;;;;;15.40;5.80;;;13.50;97.30;;;;;;4969753;28;20170;-66
2024/03/31 08:18:53;;;;;;;10.27;5.60;;;13.60;97.30;;;;;;4955901;28;20233;-64
2024/03/31 08:21:19;;;;;;;8.77;4.70;;;13.70;97.30;;;;;;4958599;28;20206;-65
2024/03/31 08:23:44;;;;;;;7.07;6.13;;;13.70;97.30;;;;;;4953648;28;20195;-64
2024/03/31 08:26:10;;;;;;;16.63;7.17;;;13.70;97.30;;;;;;4969885;28;20540;-65
2024/03/31 08:28:35;;;;;;;5.87;5.60;;;13.80;97.30;;;;;;4955441;28;20237;-64
2024/03/31 08:31:01;;;;;;;8.13;6.33;;;13.80;97.30;;;;;;4948163;28;20576;-64
2024/03/31 08:33:26;;;;;;;9.57;4.73;;;14.00;97.30;;;;;;4968984;28;20174;-64
2024/03/31 08:35:53;;;;;;;30.20;6.07;;;14.10;97.30;;;;;;4973364;28;20185;-65
2024/03/31 08:38:19;;;;;;;19.53;8.07;;;14.20;97.30;;;;;;4972065;28;20186;-64
2024/03/31 08:40:53;;;;;;;6.57;5.40;;;14.40;97.30;;;;;;4972900;28;20449;-64
2024/03/31 08:43:22;;;;;;;11.43;7.07;;;14.50;97.30;;;;;;4946702;28;20190;-64
2024/03/31 08:45:48;;;;;;;18.67;5.73;;;14.60;97.30;;;;;;4949104;28;20557;-64
2024/03/31 08:48:18;;;;;;;11.53;6.23;;;14.70;97.30;;;;;;4951901;28;20430;-64
2024/03/31 08:50:45;;;;;;;14.00;4.60;;;14.70;97.30;;;;;;4954953;28;20469;-64
2024/03/31 08:53:11;;;;;;;23.87;6.73;;;14.80;97.30;;;;;;4947644;28;20429;-64
2024/03/31 08:55:37;;;;;;;10.87;6.60;;;14.90;97.30;;;;;;4949005;28;20426;-64
2024/03/31 08:58:02;;;;;;;8.80;8.30;;;15.00;97.30;;;;;;4961637;28;20191;-64
2024/03/31 09:00:29;;;;;;;16.43;7.47;;;15.20;97.30;;;;;;4949426;28;20206;-64
2024/03/31 09:02:55;;;;;;;14.07;5.67;;;15.20;97.30;;;;;;4947942;28;20197;-64
2024/03/31 09:05:21;;;;;;;9.93;6.53;;;15.30;97.30;;;;;;4954585;28;20423;-64
2024/03/31 09:07:47;;;;;;;16.73;7.90;;;15.40;97.30;;;;;;4976883;28;20198;-64
2024/03/31 09:10:14;;;;;;;17.73;6.47;;;15.60;97.30;;;;;;4952330;28;20238;-64
2024/03/31 09:12:42;;;;;;;7.37;6.00;;;15.70;97.30;;;;;;4975358;28;20268;-64
2024/03/31 09:15:07;;;;;;;12.40;6.57;;;15.80;97.30;;;;;;4963876;28;20422;-64
2024/03/31 09:17:34;;;;;;;15.87;5.63;;;15.80;97.30;;;;;;4949434;28;20461;-64
2024/03/31 09:20:01;;;;;;;24.07;6.93;;;15.80;97.30;;;;;;4977588;28;20210;-66
2024/03/31 09:22:27;;;;;;;13.93;6.17;;;15.90;97.30;;;;;;4945345;28;20452;-64
2024/03/31 09:24:54;;;;;;;8.10;5.77;;;15.90;97.30;;;;;;4965612;28;20794;-65
2024/03/31 09:27:20;;;;;;;19.03;8.40;;;16.00;97.30;;;;;;4954583;28;20640;-65
2024/03/31 09:29:46;;;;;;;37.73;10.43;;;16.20;97.30;;;;;;4962241;28;20477;-64
2024/03/31 09:32:14;;;;;;;10.80;5.83;;;16.40;97.30;;;;;;4947264;28;20481;-65
2024/03/31 09:34:44;;;;;;;21.33;9.63;;;16.50;96.00;;;;;;4956025;28;20213;-64
2024/03/31 09:37:10;;;;;;;9.53;5.90;;;16.60;96.10;;;;;;4963085;28;20482;-64
2024/03/31 09:39:37;;;;;;;8.67;6.17;;;16.60;95.80;;;;;;4978710;28;20453;-64
2024/03/31 09:42:03;;;;;;;12.00;6.97;;;16.70;96.40;;;;;;4971586;28;20454;-65
2024/03/31 09:44:29;;;;;;;25.33;8.27;;;16.80;97.10;;;;;;4971618;28;20441;-64
2024/03/31 09:46:55;;;;;;;9.47;7.87;;;17.00;95.90;;;;;;4954811;28;20524;-64
2024/03/31 09:49:27;;;;;;;14.17;8.60;;;17.00;95.00;;;;;;4952229;28;20186;-64
2024/03/31 09:51:55;;;;;;;22.03;6.43;;;17.20;95.40;;;;;;4946245;28;20489;-65
2024/03/31 09:54:33;;;;;;;17.13;9.57;;;17.20;94.70;;;;;;4961313;28;20832;-65
2024/03/31 09:57:11;;;;;;;63.03;7.80;;;17.10;94.00;;;;;;4965235;28;20547;-65
2024/03/31 09:59:49;;;;;;;13.97;5.70;;;17.30;94.60;;;;;;4963439;28;20600;-65
2024/03/31 10:02:15;;;;;;;12.30;7.53;;;17.40;93.80;;;;;;4950857;28;20568;-67
2024/03/31 10:04:48;;;;;;;7.83;4.67;;;17.40;93.90;;;;;;4957658;28;20432;-66
2024/03/31 10:07:13;;;;;;;11.17;6.60;;;17.60;94.00;;;;;;4969794;28;20418;-66
2024/03/31 10:09:40;;;;;;;17.93;6.00;;;17.80;93.50;;;;;;4969314;28;20461;-65
2024/03/31 10:12:07;;;;;;;24.60;8.40;;;17.80;92.70;;;;;;4963036;28;20219;-65
2024/03/31 10:14:34;;;;;;;21.57;8.37;;;18.00;93.70;;;;;;4961812;28;20430;-67
2024/03/31 10:17:00;;;;;;;22.03;8.83;;;18.00;92.70;;;;;;4964098;28;20519;-65
2024/03/31 10:19:28;;;;;;;9.40;6.43;;;18.10;93.20;;;;;;4947891;28;20435;-66
2024/03/31 10:21:56;;;;;;;13.97;8.00;;;18.10;92.30;;;;;;4963616;28;20466;-68
2024/03/31 10:24:22;;;;;;;14.43;7.20;;;18.00;92.50;;;;;;4961864;28;20427;-67
2024/03/31 10:26:48;;;;;;;9.70;7.17;;;17.90;93.00;;;;;;4954316;28;20468;-64
2024/03/31 10:29:16;;;;;;;9.73;5.90;;;18.00;92.70;;;;;;4966369;28;20689;-65
2024/03/31 10:31:41;;;;;;;6.13;4.83;;;18.00;93.10;;;;;;4948531;28;20486;-64
2024/03/31 10:34:07;;;;;;;23.97;6.57;;;17.80;93.40;;;;;;4948754;28;20434;-64
2024/03/31 10:36:33;;;;;;;13.40;6.77;;;17.80;93.90;;;;;;4971750;28;20209;-65
2024/03/31 10:38:58;;;;;;;34.57;9.00;;;17.80;94.00;;;;;;4966142;28;20468;-64
2024/03/31 10:41:25;;;;;;;18.73;7.50;;;17.80;93.80;;;;;;4962550;28;20382;-64
2024/03/31 10:43:51;;;;;;;11.30;6.30;;;17.80;94.20;;;;;;4972888;28;20252;-64
2024/03/31 10:46:18;;;;;;;9.13;7.07;;;18.00;94.10;;;;;;4944513;28;20859;-65
2024/03/31 10:48:56;;;;;;;21.23;6.40;;;18.20;94.20;;;;;;4970268;28;20183;-64
2024/03/31 10:51:23;;;;;;;16.27;6.83;;;18.30;92.90;;;;;;4972671;28;20477;-64
2024/03/31 10:53:49;;;;;;;14.67;7.70;;;18.20;92.80;;;;;;4972700;28;20456;-66
2024/03/31 10:56:15;;;;;;;15.47;6.07;;;18.20;92.80;;;;;;4952333;28;20796;-64
2024/03/31 10:58:41;;;;;;;7.83;5.30;;;18.20;93.90;;;;;;4959872;28;20430;-65
2024/03/31 11:01:15;;;;;;;21.33;6.67;;;18.30;93.60;;;;;;4967778;28;20206;-65
2024/03/31 11:03:41;;;;;;;13.00;7.53;;;18.40;93.60;;;;;;4944258;28;20434;-64
2024/03/31 11:06:13;;;;;;;7.53;4.90;;;18.30;93.90;;;;;;4957981;28;20433;-64
2024/03/31 11:08:42;;;;;;;20.10;6.83;;;18.20;94.20;;;;;;4944000;28;20260;-64
2024/03/31 11:11:08;;;;;;;17.13;7.50;;;18.30;93.40;;;;;;4965541;28;20502;-65
2024/03/31 11:13:34;;;;;;;17.40;6.50;;;18.50;93.30;;;;;;4968385;28;20437;-64
2024/03/31 11:16:00;;;;;;;11.23;9.43;;;18.70;93.00;;;;;;4958459;28;20918;-64
2024/03/31 11:18:30;;;;;;;10.30;5.80;;;18.80;92.40;;;;;;4947806;28;20679;-65
2024/03/31 11:21:07;;;;;;;15.90;5.90;;;18.70;92.70;;;;;;4963676;28;20208;-65
2024/03/31 11:23:40;;;;;;;32.63;7.00;;;18.50;93.30;;;;;;4961366;28;20834;-65
2024/03/31 11:26:06;;;;;;;32.40;7.20;;;18.50;94.30;;;;;;4960697;28;20433;-65
2024/03/31 11:28:33;;;;;;;9.33;5.90;;;18.60;93.90;;;;;;4968702;28;20946;-65
2024/03/31 11:31:01;;;;;;;8.40;6.27;;;18.70;93.20;;;;;;4948393;28;21077;-64
2024/03/31 11:33:27;;;;;;;13.60;6.23;;;18.80;92.90;;;;;;4956026;28;20485;-64
2024/03/31 11:35:55;;;;;;;14.63;6.77;;;18.70;93.20;;;;;;4948149;28;20423;-65
2024/03/31 11:38:22;;;;;;;24.90;6.87;;;18.70;94.00;;;;;;4947470;28;20466;-64
2024/03/31 11:40:48;;;;;;;29.57;7.93;;;18.80;94.60;;;;;;4947959;28;20441;-64
2024/03/31 11:43:13;;;;;;;13.60;5.70;;;18.80;93.90;;;;;;4993324;23;21275;-84
2024/03/31 11:45:39;;;;;;;32.53;8.00;;;18.80;93.90;;;;;;4989160;28;20185;-84
2024/03/31 11:48:05;;;;;;;22.03;7.13;;;18.70;93.80;;;;;;4975473;28;20552;-84
2024/03/31 11:50:32;;;;;;;19.50;8.47;;;18.50;94.20;;;;;;4969572;28;20185;-84
2024/03/31 11:52:59;;;;;;;7.47;5.37;;;18.50;94.10;;;;;;4959738;28;20984;-84
2024/03/31 11:55:24;;;;;;;11.50;5.30;;;18.50;93.80;;;;;;4960338;28;20421;-83
2024/03/31 11:57:50;;;;;;;14.27;7.00;;;18.60;93.70;;;;;;4960989;28;20791;-83
2024/03/31 12:00:16;;;;;;;11.63;6.80;;;18.70;93.40;;;;;;4977477;28;20453;-83
2024/03/31 12:02:42;;;;;;;25.83;6.10;;;18.80;94.00;;;;;;4972698;28;20761;-83
2024/03/31 12:05:18;;;;;;;12.50;7.23;;;18.70;93.20;;;;;;4962977;28;20703;-84
2024/03/31 12:07:45;;;;;;;5.63;4.67;;;18.70;93.50;;;;;;4965686;28;20196;-83
2024/03/31 12:10:11;;;;;;;19.10;8.13;;;18.70;94.00;;;;;;4958424;28;20457;-84
2024/03/31 12:12:37;;;;;;;12.57;5.80;;;18.60;94.80;;;;;;4965645;28;20529;-84
2024/03/31 12:15:03;;;;;;;8.73;7.10;;;18.60;94.30;;;;;;4954432;28;20179;-84
2024/03/31 12:17:29;;;;;;;24.30;9.07;;;18.50;94.40;;;;;;4954216;28;20193;-83
2024/03/31 12:19:55;;;;;;;15.07;9.87;;;18.50;94.20;;;;;;4956288;28;20426;-84
2024/03/31 12:22:22;;;;;;;10.77;6.90;;;18.50;94.30;;;;;;4955729;28;21026;-84
2024/03/31 12:24:47;;;;;;;11.40;8.53;;;18.40;94.30;;;;;;4955557;28;20217;-84
2024/03/31 12:27:13;;;;;;;7.87;6.23;;;18.50;94.60;;;;;;4955325;28;20450;-84
2024/03/31 12:29:43;;;;;;;23.67;7.50;;;18.60;94.40;;;;;;4955494;28;20193;-84
2024/03/31 12:32:09;;;;;;;11.40;5.93;;;18.70;94.40;;;;;;4950742;28;20222;-84
2024/03/31 12:34:36;;;;;;;5.10;4.07;;;18.70;93.50;;;;;;4954790;28;20436;-85
2024/03/31 12:37:02;;;;;;;13.70;7.93;;;18.90;93.50;;;;;;4973963;28;20183;-83
2024/03/31 12:39:29;;;;;;;14.27;9.47;;;19.10;93.60;;;;;;4955016;28;20480;-85
2024/03/31 12:41:54;;;;;;;13.63;8.13;;;19.10;93.00;;;;;;4956902;28;20222;-85
2024/03/31 12:44:21;;;;;;;12.73;7.73;;;19.00;93.10;;;;;;4956615;28;20444;-84
2024/03/31 12:46:47;;;;;;;12.07;7.03;;;18.90;92.90;;;;;;4956587;28;20695;-85
2024/03/31 12:49:13;;;;;;;12.77;5.93;;;18.90;93.40;;;;;;4961692;28;20446;-85
2024/03/31 12:51:39;;;;;;;12.73;6.93;;;18.90;92.60;;;;;;4964958;28;20241;-85
2024/03/31 12:54:05;;;;;;;17.73;6.53;;;18.90;93.20;;;;;;4981522;28;20437;-85
2024/03/31 12:56:31;;;;;;;18.37;7.63;;;18.90;93.00;;;;;;4969742;28;20425;-85
2024/03/31 12:58:56;;;;;;;15.17;8.77;;;19.10;93.10;;;;;;4953724;28;20437;-84
2024/03/31 13:01:22;;;;;;;18.20;6.33;;;19.30;93.10;;;;;;4954488;28;20426;-84
2024/03/31 13:03:48;;;;;;;9.47;5.87;;;19.60;92.90;;;;;;4954889;28;20185;-84
2024/03/31 13:06:14;;;;;;;18.20;6.10;;;19.90;92.10;;;;;;4954831;28;20604;-85
2024/03/31 13:08:44;;;;;;;22.93;7.50;;;20.20;90.60;;;;;;4969628;28;20432;-85
2024/03/31 13:11:11;;;;;;;6.80;5.00;;;20.20;89.50;;;;;;4964310;28;20465;-84
2024/03/31 13:13:37;;;;;;;15.13;5.63;;;20.10;90.80;;;;;;4954760;28;20434;-85
2024/03/31 13:16:03;;;;;;;11.23;5.43;;;20.20;90.80;;;;;;4953489;28;20461;-85
2024/03/31 13:18:29;;;;;;;9.33;5.80;;;20.40;90.00;;;;;;4953002;28;20421;-84
2024/03/31 13:20:56;;;;;;;21.13;5.70;;;20.50;89.40;;;;;;4954449;28;20179;-84
2024/03/31 13:23:23;;;;;;;6.87;4.20;;;20.30;88.10;;;;;;4969178;28;20198;-85
2024/03/31 13:25:49;;;;;;;20.03;5.77;;;20.00;89.40;;;;;;4964384;28;20426;-83
2024/03/31 13:28:14;;;;;;;11.47;5.90;;;20.00;89.80;;;;;;4954355;28;20862;-85
2024/03/31 13:30:40;;;;;;;15.43;7.67;;;20.10;90.80;;;;;;4953039;28;20195;-85
2024/03/31 13:33:06;;;;;;;4.10;3.27;;;20.30;89.60;;;;;;4952916;28;20198;-84
2024/03/31 13:35:31;;;;;;;9.13;6.93;;;20.30;88.80;;;;;;4952170;28;20175;-84
2024/03/31 13:37:57;;;;;;;11.13;8.00;;;20.10;90.10;;;;;;4953838;28;20198;-84
2024/03/31 13:40:23;;;;;;;23.07;8.50;;;20.00;91.00;;;;;;4954201;28;20179;-85
2024/03/31 13:42:49;;;;;;;13.37;6.53;;;19.90;90.30;;;;;;4950990;28;20235;-85
2024/03/31 13:45:14;;;;;;;8.40;5.30;;;19.80;91.20;;;;;;4956108;28;20433;-84
2024/03/31 13:47:40;;;;;;;18.37;9.50;;;19.70;90.90;;;;;;4960913;28;20567;-85
2024/03/31 13:50:06;;;;;;;7.60;5.07;;;19.70;92.30;;;;;;4953811;28;20170;-85
2024/03/31 13:52:32;;;;;;;9.43;6.93;;;19.80;90.50;;;;;;4953092;28;20210;-85
2024/03/31 13:54:57;;;;;;;7.23;4.97;;;19.90;90.80;;;;;;4954147;28;20194;-85
2024/03/31 13:57:23;;;;;;;10.60;5.90;;;20.00;90.70;;;;;;4953955;28;20645;-84
2024/03/31 13:59:49;;;;;;;13.17;6.90;;;20.20;90.80;;;;;;4971010;28;20213;-85
2024/03/31 14:02:15;;;;;;;7.93;6.03;;;20.50;90.30;;;;;;4954219;28;20229;-84
2024/03/31 14:04:40;;;;;;;35.87;7.20;;;20.90;89.30;;;;;;4951368;28;20793;-84
2024/03/31 14:07:06;;;;;;;12.97;5.93;;;21.00;89.50;;;;;;4968511;28;20202;-84
2024/03/31 14:09:31;;;;;;;18.77;7.13;;;21.10;89.20;;;;;;4950944;28;20630;-84
2024/03/31 14:11:57;;;;;;;11.80;4.03;;;20.60;88.40;;;;;;4953839;28;20537;-84
2024/03/31 14:14:22;;;;;;;22.57;6.23;;;20.40;90.00;;;;;;4968678;28;20198;-85
2024/03/31 14:16:48;;;;;;;23.13;8.50;;;20.50;89.40;;;;;;4951370;28;20230;-84
2024/03/31 14:19:14;;;;;;;17.10;7.53;;;20.50;89.90;;;;;;4953705;28;20210;-84
2024/03/31 14:21:40;;;;;;;15.30;7.00;;;20.60;89.70;;;;;;4951570;28;20292;-84
2024/03/31 14:24:06;;;;;;;10.90;6.17;;;20.50;89.70;;;;;;4953748;28;20497;-84
2024/03/31 14:26:32;;;;;;;16.53;7.77;;;20.30;89.40;;;;;;4956292;28;20187;-84
2024/03/31 14:28:58;;;;;;;5.23;4.70;;;20.30;89.60;;;;;;4954964;28;20723;-85
2024/03/31 14:31:23;;;;;;;6.90;6.00;;;20.30;89.40;;;;;;4953578;28;20489;-84
2024/03/31 14:33:49;;;;;;;20.37;6.70;;;20.20;90.30;;;;;;4954252;28;20586;-84
2024/03/31 14:36:14;;;;;;;10.53;7.70;;;20.10;91.20;;;;;;4954315;28;20249;-85
2024/03/31 14:38:40;;;;;;;9.07;5.97;;;20.00;90.90;;;;;;4954808;28;20194;-84
2024/03/31 14:41:05;;;;;;;14.07;7.30;;;19.90;90.90;;;;;;4959388;28;20289;-84
2024/03/31 14:43:31;;;;;;;10.73;6.83;;;20.00;90.80;;;;;;4964892;28;20292;-84
2024/03/31 14:46:00;;;;;;;9.60;5.60;;;20.10;90.30;;;;;;4950715;28;20194;-84
2024/03/31 14:48:25;;;;;;;21.00;5.40;;;20.30;90.50;;;;;;4968611;28;20186;-83
2024/03/31 14:50:51;;;;;;;5.90;4.87;;;20.70;90.00;;;;;;4951366;28;20489;-84
2024/03/31 14:53:17;;;;;;;12.83;5.60;;;21.20;88.70;;;;;;4953417;28;20245;-84
2024/03/31 14:55:42;;;;;;;6.53;5.43;;;21.60;88.10;;;;;;4970528;28;20210;-84
2024/03/31 14:58:10;;;;;;;10.40;6.30;;;21.90;86.40;;;;;;4975459;28;20183;-84
2024/03/31 15:00:35;;;;;;;10.43;5.80;;;22.10;85.60;;;;;;4957271;28;20190;-84
2024/03/31 15:03:01;;;;;;;11.13;5.27;;;21.90;85.70;;;;;;4956740;28;20464;-84
2024/03/31 15:05:26;;;;;;;8.43;5.13;;;21.50;86.70;;;;;;4972459;28;20186;-84
2024/03/31 15:07:52;;;;;;;15.30;6.83;;;21.10;87.80;;;;;;4956701;28;20744;-84
2024/03/31 15:10:17;;;;;;;11.00;5.20;;;20.90;88.50;;;;;;4972230;28;20222;-84
2024/03/31 15:12:43;;;;;;;8.63;3.83;;;21.00;88.30;;;;;;4954804;28;20288;-84
2024/03/31 15:15:09;;;;;;;9.53;4.40;;;21.30;87.60;;;;;;4951008;28;20210;-84
2024/03/31 15:17:34;;;;;;;8.00;4.23;;;21.70;86.70;;;;;;4956493;28;20197;-84
2024/03/31 15:20:00;;;;;;;7.00;4.73;;;21.90;86.10;;;;;;4955680;28;20183;-84
2024/03/31 15:22:25;;;;;;;6.40;4.57;;;21.90;86.10;;;;;;4956476;28;20230;-84
2024/03/31 15:24:54;;;;;;;25.77;6.27;;;21.70;86.10;;;;;;4956529;28;20186;-84
2024/03/31 15:27:19;;;;;;;5.93;4.37;;;21.50;86.40;;;;;;4973880;28;20194;-84
2024/03/31 15:29:45;;;;;;;6.30;4.87;;;21.10;86.30;;;;;;4970559;28;20436;-84
2024/03/31 15:32:11;;;;;;;15.83;7.40;;;20.70;86.90;;;;;;4972052;28;20238;-84
2024/03/31 15:34:37;;;;;;;7.30;5.90;;;20.30;88.10;;;;;;4956248;28;20277;-84
2024/03/31 15:37:03;;;;;;;13.93;5.03;;;20.10;88.90;;;;;;4955719;28;20498;-84
2024/03/31 15:39:28;;;;;;;11.87;6.70;;;19.90;89.70;;;;;;4956445;28;20246;-84
2024/03/31 15:41:55;;;;;;;5.23;4.63;;;19.80;90.30;;;;;;4954729;28;21147;-84
2024/03/31 15:44:21;;;;;;;20.03;5.50;;;19.80;90.90;;;;;;4956086;28;20249;-84
2024/03/31 15:46:46;;;;;;;14.83;5.80;;;19.60;91.30;;;;;;4955898;28;20980;-84
2024/03/31 15:49:11;;;;;;;9.07;4.50;;;19.60;91.20;;;;;;4955840;28;20186;-84
2024/03/31 15:51:37;;;;;;;38.33;5.07;;;19.60;90.50;;;;;;4971820;28;20214;-84
2024/03/31 15:54:03;;;;;;;25.67;5.73;;;19.50;90.00;;;;;;4970402;28;20191;-84
2024/03/31 15:56:28;;;;;;;10.70;5.20;;;19.50;90.20;;;;;;4956449;28;20225;-84
2024/03/31 15:58:54;;;;;;;6.57;4.80;;;19.40;90.60;;;;;;4973636;28;20501;-84
2024/03/31 16:01:20;;;;;;;11.57;4.20;;;19.20;90.10;;;;;;4957845;28;20716;-84
2024/03/31 16:03:45;;;;;;;3.90;3.73;;;19.20;91.30;;;;;;4972604;28;20214;-85
2024/03/31 16:06:12;;;;;;;13.83;6.27;;;19.30;91.70;;;;;;4955510;28;20198;-84
2024/03/31 16:08:38;;;;;;;5.60;4.10;;;19.50;90.80;;;;;;4952639;28;20190;-84
2024/03/31 16:11:03;;;;;;;11.60;4.33;;;19.70;90.30;;;;;;4954467;28;20473;-84
2024/03/31 16:13:29;;;;;;;4.63;4.40;;;19.70;90.30;;;;;;4955154;28;20236;-84
2024/03/31 16:15:55;;;;;;;14.03;4.90;;;19.70;90.40;;;;;;4971725;28;20194;-84
2024/03/31 16:18:20;;;;;;;6.83;5.13;;;19.60;91.00;;;;;;4955501;28;20548;-84
2024/03/31 16:20:46;;;;;;;52.70;6.90;;;19.50;91.10;;;;;;4954363;28;20745;-84
2024/03/31 16:23:11;;;;;;;8.97;5.33;;;19.20;91.40;;;;;;4954806;28;20280;-84
2024/03/31 16:25:44;;;;;;;7.67;4.57;;;19.10;93.00;;;;;;4972675;28;20393;-84
2024/03/31 16:28:10;;;;;;;8.03;4.40;;;19.50;92.90;;;;;;4948851;28;20197;-84
2024/03/31 16:30:39;;;;;;;13.00;4.40;;;19.80;92.10;;;;;;4955323;28;20441;-84
2024/03/31 16:33:05;;;;;;;12.03;6.33;;;20.40;90.20;;;;;;4970881;28;20777;-84
2024/03/31 16:35:31;;;;;;;14.57;5.60;;;20.80;88.50;;;;;;4955530;28;20457;-84